createdAt,value
2018-03-17T00:00:46.024Z,-2.60
2018-03-17T00:03:12.458Z,-2.60
2018-03-17T00:05:39.690Z,-2.60
2018-03-17T00:08:06.904Z,-2.70
2018-03-17T00:10:33.313Z,-2.60
2018-03-17T00:13:00.451Z,-2.70
2018-03-17T00:15:28.483Z,-2.80
2018-03-17T00:17:55.651Z,-2.80
2018-03-17T00:20:22.800Z,-2.90
2018-03-17T00:22:49.280Z,-2.90
2018-03-17T00:25:16.466Z,-2.90
2018-03-17T00:27:42.869Z,-2.90
2018-03-17T00:30:09.273Z,-2.90
2018-03-17T00:32:35.696Z,-2.90
2018-03-17T00:35:02.891Z,-2.90
2018-03-17T00:37:30.026Z,-3.00
2018-03-17T00:39:57.257Z,-3.00
2018-03-17T00:42:23.666Z,-3.00
2018-03-17T00:44:50.091Z,-3.00
2018-03-17T00:47:16.536Z,-3.00
2018-03-17T00:49:42.946Z,-3.10
2018-03-17T00:52:10.109Z,-3.10
2018-03-17T00:54:37.299Z,-3.20
2018-03-17T00:57:04.471Z,-3.20
2018-03-17T00:59:31.637Z,-3.20
2018-03-17T01:01:58.845Z,-3.30
2018-03-17T01:04:25.291Z,-3.30
2018-03-17T01:06:51.706Z,-3.30
2018-03-17T01:09:18.166Z,-3.30
2018-03-17T01:11:44.565Z,-3.20
2018-03-17T01:14:11.064Z,-3.20
2018-03-17T01:16:37.517Z,-3.20
2018-03-17T01:19:04.015Z,-3.20
2018-03-17T01:21:31.182Z,-3.30
2018-03-17T01:23:58.402Z,-3.20
2018-03-17T01:26:24.816Z,-3.30
2018-03-17T01:28:51.374Z,-3.30
2018-03-17T01:31:18.532Z,-3.30
2018-03-17T01:33:45.695Z,-3.30
2018-03-17T01:36:12.860Z,-3.30
2018-03-17T01:38:39.317Z,-3.30
2018-03-17T01:41:06.489Z,-3.20
2018-03-17T01:43:32.918Z,-3.20
2018-03-17T01:45:59.308Z,-3.20
2018-03-17T01:48:26.442Z,-3.20
2018-03-17T01:50:52.860Z,-3.20
2018-03-17T01:53:19.291Z,-3.20
2018-03-17T01:55:45.767Z,-3.20
2018-03-17T01:58:12.893Z,-3.20
2018-03-17T02:00:39.276Z,-3.20
2018-03-17T02:03:06.471Z,-3.20
2018-03-17T02:05:33.078Z,-3.20
2018-03-17T02:07:59.498Z,-3.20
2018-03-17T02:10:26.050Z,-3.20
2018-03-17T02:12:53.102Z,-3.30
2018-03-17T02:15:20.279Z,-3.20
2018-03-17T02:17:47.407Z,-3.20
2018-03-17T02:20:13.815Z,-3.20
2018-03-17T02:22:40.219Z,-3.20
2018-03-17T02:25:06.654Z,-3.40
2018-03-17T02:27:33.068Z,-3.40
2018-03-17T02:30:00.222Z,-3.50
2018-03-17T02:32:26.650Z,-3.50
2018-03-17T02:34:53.059Z,-3.60
2018-03-17T02:37:19.475Z,-3.60
2018-03-17T02:39:45.971Z,-3.60
2018-03-17T02:42:13.133Z,-3.70
2018-03-17T02:44:40.419Z,-3.70
2018-03-17T02:47:06.858Z,-3.70
2018-03-17T02:49:34.031Z,-3.70
2018-03-17T02:52:01.215Z,-3.70
2018-03-17T02:54:28.371Z,-3.70
2018-03-17T02:56:55.542Z,-3.80
2018-03-17T02:59:21.957Z,-3.80
2018-03-17T03:01:48.389Z,-3.80
2018-03-17T03:04:14.826Z,-3.80
2018-03-17T03:06:41.994Z,-3.90
2018-03-17T03:09:09.159Z,-3.80
2018-03-17T03:11:36.376Z,-3.80
2018-03-17T03:14:02.854Z,-3.80
2018-03-17T03:16:29.290Z,-3.80
2018-03-17T03:18:55.724Z,-3.90
2018-03-17T03:21:22.153Z,-3.90
2018-03-17T03:23:48.568Z,-3.90
2018-03-17T03:26:14.966Z,-4.00
2018-03-17T03:28:42.130Z,-4.00
2018-03-17T03:31:09.617Z,-4.10
2018-03-17T03:33:36.757Z,-4.20
2018-03-17T03:36:03.222Z,-4.20
2018-03-17T03:38:29.615Z,-4.20
2018-03-17T03:40:56.756Z,-4.20
2018-03-17T03:43:23.172Z,-4.20
2018-03-17T03:45:49.701Z,-4.20
2018-03-17T03:48:16.146Z,-4.20
2018-03-17T03:50:43.302Z,-4.20
2018-03-17T03:53:09.777Z,-4.20
2018-03-17T03:55:36.954Z,-4.30
2018-03-17T03:58:04.230Z,-4.30
2018-03-17T04:00:31.362Z,-4.30
2018-03-17T04:03:01.251Z,-4.30
2018-03-17T04:05:27.793Z,-4.30
2018-03-17T04:07:54.971Z,-4.40
2018-03-17T04:10:21.523Z,-4.40
2018-03-17T04:12:48.729Z,-4.40
2018-03-17T04:15:15.145Z,-4.40
2018-03-17T04:17:42.342Z,-4.40
2018-03-17T04:20:08.729Z,-4.50
2018-03-17T04:22:35.174Z,-4.40
2018-03-17T04:25:02.118Z,-4.40
2018-03-17T04:27:28.485Z,-4.40
2018-03-17T04:29:54.929Z,-4.30
2018-03-17T04:32:21.370Z,-4.30
2018-03-17T04:34:48.475Z,-4.40
2018-03-17T04:37:14.882Z,-4.40
2018-03-17T04:39:42.056Z,-4.40
2018-03-17T04:42:09.196Z,-4.40
2018-03-17T04:44:35.636Z,-4.40
2018-03-17T04:47:02.053Z,-4.30
2018-03-17T04:49:28.456Z,-4.40
2018-03-17T04:51:54.909Z,-4.40
2018-03-17T04:54:21.313Z,-4.40
2018-03-17T04:56:48.467Z,-4.30
2018-03-17T04:59:15.652Z,-4.40
2018-03-17T05:01:42.826Z,-4.40
2018-03-17T05:04:10.042Z,-4.40
2018-03-17T05:06:36.562Z,-4.40
2018-03-17T05:09:03.943Z,-4.40
2018-03-17T05:11:31.136Z,-4.40
2018-03-17T05:13:57.565Z,-4.40
2018-03-17T05:16:24.743Z,-4.40
2018-03-17T05:18:51.912Z,-4.40
2018-03-17T05:21:18.387Z,-4.40
2018-03-17T05:23:44.794Z,-4.50
2018-03-17T05:26:11.234Z,-4.50
2018-03-17T05:28:37.672Z,-4.50
2018-03-17T05:31:04.102Z,-4.50
2018-03-17T05:33:30.543Z,-4.60
2018-03-17T05:35:57.823Z,-4.60
2018-03-17T05:38:25.097Z,-4.60
2018-03-17T05:40:52.387Z,-4.60
2018-03-17T05:43:18.841Z,-4.60
2018-03-17T05:45:46.105Z,-4.70
2018-03-17T05:48:12.562Z,-4.70
2018-03-17T05:50:39.007Z,-4.70
2018-03-17T05:53:06.299Z,-4.70
2018-03-17T05:55:32.710Z,-4.70
2018-03-17T05:57:59.164Z,-4.60
2018-03-17T06:00:25.659Z,-4.60
2018-03-17T06:02:52.823Z,-4.60
2018-03-17T06:05:19.999Z,-4.50
2018-03-17T06:07:47.200Z,-4.50
2018-03-17T06:10:13.632Z,-4.60
2018-03-17T06:12:40.904Z,-4.60
2018-03-17T06:15:08.104Z,-4.60
2018-03-17T06:17:34.562Z,-4.60
2018-03-17T06:20:01.092Z,-4.60
2018-03-17T06:22:28.240Z,-4.60
2018-03-17T06:24:54.643Z,-4.60
2018-03-17T06:27:21.177Z,-4.60
2018-03-17T06:29:48.359Z,-4.70
2018-03-17T06:32:14.784Z,-4.80
2018-03-17T06:34:41.244Z,-4.70
2018-03-17T06:37:07.667Z,-4.60
2018-03-17T06:39:34.090Z,-4.60
2018-03-17T06:42:00.502Z,-4.50
2018-03-17T06:44:27.658Z,-4.40
2018-03-17T06:46:54.052Z,-4.30
2018-03-17T06:49:20.492Z,-4.20
2018-03-17T06:51:46.956Z,-4.20
2018-03-17T06:54:14.102Z,-4.20
2018-03-17T06:56:40.501Z,-4.20
2018-03-17T06:59:06.935Z,-4.20
2018-03-17T07:01:34.223Z,-4.10
2018-03-17T07:04:01.501Z,-4.20
2018-03-17T07:06:28.657Z,-4.20
2018-03-17T07:08:55.836Z,-4.20
2018-03-17T07:11:23.218Z,-4.20
2018-03-17T07:13:50.440Z,-4.20
2018-03-17T07:16:16.870Z,-4.20
2018-03-17T07:18:43.300Z,-4.20
2018-03-17T07:21:10.512Z,-4.10
2018-03-17T07:23:36.939Z,-4.10
2018-03-17T07:26:04.247Z,-4.10
2018-03-17T07:28:30.869Z,-4.10
2018-03-17T07:30:58.022Z,-4.30
2018-03-17T07:33:24.477Z,-4.30
2018-03-17T07:35:51.004Z,-4.30
2018-03-17T07:38:17.618Z,-4.30
2018-03-17T07:40:44.173Z,-4.30
2018-03-17T07:43:11.873Z,-4.30
2018-03-17T07:45:38.353Z,-4.30
2018-03-17T07:48:04.792Z,-4.30
2018-03-17T07:50:31.331Z,-4.30
2018-03-17T07:52:57.755Z,-4.20
2018-03-17T07:55:24.344Z,-4.20
2018-03-17T07:57:51.722Z,-4.10
2018-03-17T08:00:18.174Z,-4.10
2018-03-17T08:02:45.695Z,-3.90
2018-03-17T08:05:12.212Z,-3.90
2018-03-17T08:07:38.670Z,-3.90
2018-03-17T08:10:05.934Z,-3.90
2018-03-17T08:12:33.226Z,-3.80
2018-03-17T08:14:59.776Z,-3.90
2018-03-17T08:17:27.057Z,-3.60
2018-03-17T08:19:54.232Z,-3.60
2018-03-17T08:22:21.422Z,-3.60
2018-03-17T08:24:47.856Z,-3.50
2018-03-17T08:27:14.281Z,-3.50
2018-03-17T08:29:40.722Z,-3.40
2018-03-17T08:32:07.435Z,-3.30
2018-03-17T08:34:37.215Z,-3.20
2018-03-17T08:37:03.716Z,-3.10
2018-03-17T08:39:30.799Z,-3.00
2018-03-17T08:41:57.446Z,-2.90
2018-03-17T08:44:24.326Z,-3.00
2018-03-17T08:46:50.817Z,-2.90
2018-03-17T08:49:17.325Z,-2.90
2018-03-17T08:51:44.505Z,-2.80
2018-03-17T08:54:11.160Z,-2.90
2018-03-17T08:56:38.342Z,-3.00
2018-03-17T08:59:04.738Z,-3.10
2018-03-17T09:01:31.161Z,-3.10
2018-03-17T09:03:57.615Z,-3.20
2018-03-17T09:06:24.155Z,-3.30
2018-03-17T09:08:51.531Z,-3.20
2018-03-17T09:11:18.911Z,-3.20
2018-03-17T09:13:45.370Z,-3.20
2018-03-17T09:16:12.520Z,-3.10
2018-03-17T09:18:39.660Z,-2.80
2018-03-17T09:21:06.082Z,-2.80
2018-03-17T09:23:32.550Z,-2.80
2018-03-17T09:25:59.087Z,-2.80
2018-03-17T09:28:25.603Z,-2.80
2018-03-17T09:30:52.787Z,-2.70
2018-03-17T09:33:19.952Z,-2.70
2018-03-17T09:35:46.539Z,-2.70
2018-03-17T09:38:13.716Z,-2.60
2018-03-17T09:40:40.163Z,-2.70
2018-03-17T09:43:07.403Z,-2.60
2018-03-17T09:45:34.577Z,-2.80
2018-03-17T09:48:01.028Z,-2.80
2018-03-17T09:50:27.571Z,-2.70
2018-03-17T09:52:53.961Z,-2.70
2018-03-17T09:55:21.260Z,-2.80
2018-03-17T09:57:48.454Z,-2.90
2018-03-17T10:00:14.922Z,-2.90
2018-03-17T10:03:43.712Z,-2.90
2018-03-17T10:06:10.882Z,-3.00
2018-03-17T10:08:37.311Z,-3.00
2018-03-17T10:11:03.721Z,-3.00
2018-03-17T10:13:30.171Z,-3.00
2018-03-17T10:15:56.737Z,-2.90
2018-03-17T10:18:23.291Z,-2.90
2018-03-17T10:20:49.807Z,-2.90
2018-03-17T10:23:16.250Z,-2.90
2018-03-17T10:25:42.894Z,-2.90
2018-03-17T10:28:09.354Z,-3.00
2018-03-17T10:30:35.874Z,-2.90
2018-03-17T10:33:03.105Z,-2.90
2018-03-17T10:35:29.803Z,-2.90
2018-03-17T10:37:56.966Z,-2.80
2018-03-17T10:40:24.255Z,-2.70
2018-03-17T10:42:51.512Z,-2.60
2018-03-17T10:45:18.004Z,-2.60
2018-03-17T10:47:44.394Z,-2.50
2018-03-17T10:50:10.902Z,-2.50
2018-03-17T10:52:38.051Z,-2.30
2018-03-17T10:55:05.322Z,-2.30
2018-03-17T10:57:32.415Z,-2.30
2018-03-17T10:59:58.948Z,-2.30
2018-03-17T11:02:25.444Z,-2.20
2018-03-17T11:04:51.989Z,-2.20
2018-03-17T11:07:18.424Z,-2.20
2018-03-17T11:09:44.860Z,-2.30
2018-03-17T11:12:11.460Z,-2.30
2018-03-17T11:14:38.627Z,-2.20
2018-03-17T11:17:05.809Z,-2.20
2018-03-17T11:19:32.855Z,-2.20
2018-03-17T11:22:00.147Z,-2.20
2018-03-17T11:24:27.509Z,-2.20
2018-03-17T11:26:54.799Z,-2.20
2018-03-17T11:29:22.074Z,-2.20
2018-03-17T11:31:48.496Z,-2.20
2018-03-17T11:34:14.986Z,-2.10
2018-03-17T11:36:42.668Z,-1.80
2018-03-17T11:39:09.829Z,-1.80
2018-03-17T11:41:37.044Z,-1.70
2018-03-17T11:44:03.477Z,-1.70
2018-03-17T11:46:30.028Z,-1.70
2018-03-17T11:48:57.198Z,-1.90
2018-03-17T11:51:25.234Z,-1.90
2018-03-17T11:53:51.652Z,-1.90
2018-03-17T11:56:18.096Z,-1.90
2018-03-17T11:58:45.303Z,-1.80
2018-03-17T12:01:11.779Z,-1.80
2018-03-17T12:03:38.283Z,-1.70
2018-03-17T12:06:05.573Z,-1.90
2018-03-17T12:08:31.976Z,-1.90
2018-03-17T12:10:58.424Z,-2.10
2018-03-17T12:13:24.890Z,-2.20
2018-03-17T12:15:51.492Z,-2.30
2018-03-17T12:18:18.668Z,-2.20
2018-03-17T12:20:45.227Z,-2.30
2018-03-17T12:23:11.679Z,-2.30
2018-03-17T12:25:38.867Z,-2.40
2018-03-17T12:28:05.308Z,-2.50
2018-03-17T12:30:32.512Z,-2.50
2018-03-17T12:32:59.038Z,-2.50
2018-03-17T12:35:26.236Z,-2.70
2018-03-17T12:37:52.671Z,-2.70
2018-03-17T12:40:21.708Z,-2.80
2018-03-17T12:42:45.675Z,-3.00
2018-03-17T12:45:12.852Z,-2.90
2018-03-17T12:47:40.019Z,-2.80
2018-03-17T12:50:07.177Z,-3.00
2018-03-17T12:52:33.617Z,-3.00
2018-03-17T12:55:00.115Z,-3.10
2018-03-17T12:57:26.516Z,-3.30
2018-03-17T12:59:52.971Z,-3.30
2018-03-17T13:02:19.415Z,-3.20
2018-03-17T13:04:45.872Z,-3.20
2018-03-17T13:07:12.328Z,-3.10
2018-03-17T13:09:39.480Z,-3.20
2018-03-17T13:12:05.979Z,-3.20
2018-03-17T13:14:32.432Z,-3.20
2018-03-17T13:16:58.885Z,-3.30
2018-03-17T13:19:31.006Z,-3.20
2018-03-17T13:21:58.240Z,-3.30
2018-03-17T13:24:28.428Z,-3.30
2018-03-17T13:27:07.048Z,-3.20
2018-03-17T13:29:34.264Z,-3.50
2018-03-17T13:32:00.690Z,-3.50
2018-03-17T13:34:27.131Z,-3.50
2018-03-17T13:37:06.548Z,-3.50
2018-03-17T13:39:32.985Z,-3.50
2018-03-17T13:41:59.471Z,-3.40
2018-03-17T13:44:25.953Z,-3.60
2018-03-17T13:46:53.138Z,-3.70
2018-03-17T13:49:19.560Z,-3.80
2018-03-17T13:51:45.984Z,-3.80
2018-03-17T13:54:12.413Z,-3.80
2018-03-17T13:56:38.818Z,-3.80
2018-03-17T13:59:05.247Z,-3.90
2018-03-17T14:01:31.699Z,-4.00
2018-03-17T14:03:58.095Z,-4.00
2018-03-17T14:06:25.358Z,-3.90
2018-03-17T14:08:53.379Z,-3.80
2018-03-17T14:11:20.578Z,-3.90
2018-03-17T14:13:47.002Z,-3.90
2018-03-17T14:16:14.221Z,-3.90
2018-03-17T14:18:40.738Z,-4.00
2018-03-17T14:21:07.945Z,-4.10
2018-03-17T14:23:34.425Z,-4.10
2018-03-17T14:26:00.931Z,-4.10
2018-03-17T14:28:27.352Z,-4.10
2018-03-17T14:30:54.661Z,-4.10
2018-03-17T14:33:22.030Z,-4.10
2018-03-17T14:35:49.191Z,-4.20
2018-03-17T14:38:16.535Z,-4.30
2018-03-17T14:40:43.921Z,-4.40
2018-03-17T14:46:04.634Z,-4.50
2018-03-17T14:48:31.839Z,-4.50
2018-03-17T14:50:58.295Z,-4.50
2018-03-17T14:53:24.983Z,-4.40
2018-03-17T14:55:52.247Z,-4.40
2018-03-17T14:58:18.812Z,-4.50
2018-03-17T15:00:45.342Z,-4.60
2018-03-17T15:03:12.647Z,-4.80
2018-03-17T15:05:39.206Z,-4.80
2018-03-17T15:08:06.054Z,-4.80
2018-03-17T15:10:33.311Z,-4.80
2018-03-17T15:13:00.739Z,-4.90
2018-03-17T15:15:27.557Z,-4.90
2018-03-17T15:17:53.972Z,-5.00
2018-03-17T15:20:20.400Z,-4.90
2018-03-17T15:22:46.893Z,-4.90
2018-03-17T15:25:13.358Z,-4.90
2018-03-17T15:27:40.704Z,-4.90
2018-03-17T15:30:07.242Z,-5.00
2018-03-17T15:32:34.723Z,-5.00
2018-03-17T15:35:03.531Z,-5.00
2018-03-17T15:37:30.293Z,-4.90
2018-03-17T15:39:57.032Z,-4.80
2018-03-17T15:42:23.495Z,-4.70
2018-03-17T15:44:50.788Z,-4.80
2018-03-17T15:47:17.961Z,-4.90
2018-03-17T15:49:45.130Z,-4.90
2018-03-17T15:52:12.487Z,-5.00
2018-03-17T15:54:40.298Z,-5.00
2018-03-17T15:57:06.736Z,-5.00
2018-03-17T15:59:34.273Z,-5.10
2018-03-17T16:02:00.836Z,-5.10
2018-03-17T16:04:27.990Z,-5.10
2018-03-17T16:06:54.760Z,-5.20
2018-03-17T16:09:21.269Z,-5.20
2018-03-17T16:11:48.559Z,-5.20
2018-03-17T16:14:15.087Z,-5.20
2018-03-17T16:16:41.675Z,-5.20
2018-03-17T16:19:08.142Z,-5.20
2018-03-17T16:21:34.618Z,-5.20
2018-03-17T16:24:01.608Z,-5.10
2018-03-17T16:26:30.471Z,-5.20
2018-03-17T16:28:56.926Z,-5.20
2018-03-17T16:31:23.424Z,-5.30
2018-03-17T16:33:49.937Z,-5.40
2018-03-17T16:36:16.431Z,-5.40
2018-03-17T16:38:42.932Z,-5.30
2018-03-17T16:41:10.307Z,-5.30
2018-03-17T16:43:36.724Z,-5.30
2018-03-17T16:46:03.204Z,-5.30
2018-03-17T16:48:29.702Z,-5.20
2018-03-17T16:50:56.398Z,-5.20
2018-03-17T16:53:23.433Z,-5.20
2018-03-17T16:55:50.227Z,-5.20
2018-03-17T16:58:17.347Z,-5.20
2018-03-17T17:00:43.924Z,-5.30
2018-03-17T17:03:10.494Z,-5.40
2018-03-17T17:05:37.125Z,-5.40
2018-03-17T17:08:08.650Z,-5.50
2018-03-17T17:10:35.161Z,-5.50
2018-03-17T17:13:01.714Z,-5.50
2018-03-17T17:15:28.294Z,-5.50
2018-03-17T17:17:54.837Z,-5.60
2018-03-17T17:20:21.987Z,-5.60
2018-03-17T17:22:48.426Z,-5.60
2018-03-17T17:25:15.666Z,-5.60
2018-03-17T17:27:42.277Z,-5.60
2018-03-17T17:30:08.862Z,-5.60
2018-03-17T17:32:35.860Z,-5.60
2018-03-17T17:35:02.378Z,-5.60
2018-03-17T17:37:30.175Z,-5.50
2018-03-17T17:39:56.807Z,-5.50
2018-03-17T17:42:23.531Z,-5.50
2018-03-17T17:44:50.792Z,-5.60
2018-03-17T17:47:17.332Z,-5.60
2018-03-17T17:49:43.815Z,-5.60
2018-03-17T17:52:11.050Z,-5.60
2018-03-17T17:54:41.562Z,-5.60
2018-03-17T17:57:08.371Z,-5.60
2018-03-17T17:59:35.703Z,-5.60
2018-03-17T18:02:02.202Z,-5.60
2018-03-17T18:04:28.825Z,-5.50
2018-03-17T18:06:55.431Z,-5.50
2018-03-17T18:09:21.963Z,-5.40
2018-03-17T18:11:48.404Z,-5.50
2018-03-17T18:14:14.911Z,-5.40
2018-03-17T18:16:41.525Z,-5.40
2018-03-17T18:19:08.216Z,-5.50
2018-03-17T18:21:34.701Z,-5.50
2018-03-17T18:24:01.211Z,-5.50
2018-03-17T18:26:27.615Z,-5.50
2018-03-17T18:28:54.049Z,-5.50
2018-03-17T18:31:20.546Z,-5.50
2018-03-17T18:33:47.058Z,-5.50
2018-03-17T18:36:14.614Z,-5.50
2018-03-17T18:38:41.032Z,-5.50
2018-03-17T18:41:09.462Z,-5.50
2018-03-17T18:43:35.928Z,-5.50
2018-03-17T18:46:02.417Z,-5.50
2018-03-17T18:48:29.377Z,-5.60
2018-03-17T18:50:55.964Z,-5.60
2018-03-17T18:53:23.026Z,-5.60
2018-03-17T18:55:49.706Z,-5.70
2018-03-17T18:58:16.116Z,-5.70
2018-03-17T19:00:43.296Z,-5.60
2018-03-17T19:03:09.850Z,-5.60
2018-03-17T19:05:37.050Z,-5.60
2018-03-17T19:08:03.923Z,-5.60
2018-03-17T19:10:31.540Z,-5.60
2018-03-17T19:12:58.800Z,-5.70
2018-03-17T19:15:25.256Z,-5.80
2018-03-17T19:17:52.466Z,-5.70
2018-03-17T19:20:19.814Z,-5.80
2018-03-17T19:22:46.549Z,-5.70
2018-03-17T19:25:13.011Z,-5.70
2018-03-17T19:27:39.476Z,-5.70
2018-03-17T19:30:06.659Z,-5.70
2018-03-17T19:32:33.155Z,-5.70
2018-03-17T19:34:59.668Z,-5.70
2018-03-17T19:37:30.989Z,-5.70
2018-03-17T19:39:57.415Z,-5.60
2018-03-17T19:42:24.108Z,-5.60
2018-03-17T19:44:50.650Z,-5.60
2018-03-17T19:47:17.420Z,-5.60
2018-03-17T19:49:44.156Z,-5.70
2018-03-17T19:52:10.593Z,-5.60
2018-03-17T19:54:37.065Z,-5.60
2018-03-17T19:57:03.641Z,-5.70
2018-03-17T19:59:30.497Z,-5.70
2018-03-17T20:01:57.665Z,-5.70
2018-03-17T20:04:24.830Z,-5.60
2018-03-17T20:06:51.727Z,-5.70
2018-03-17T20:09:19.059Z,-5.60
2018-03-17T20:13:21.149Z,-5.60
2018-03-17T20:15:51.177Z,-5.60
2018-03-17T20:18:17.799Z,-5.60
2018-03-17T20:20:44.334Z,-5.50
2018-03-17T20:23:12.149Z,-5.50
2018-03-17T20:25:45.228Z,-5.50
2018-03-17T20:28:11.896Z,-5.50
2018-03-17T20:30:40.622Z,-5.50
2018-03-17T20:33:08.597Z,-5.50
2018-03-17T20:35:35.151Z,-5.50
2018-03-17T20:38:01.907Z,-5.50
2018-03-17T20:40:28.379Z,-5.50
2018-03-17T20:42:55.960Z,-5.50
2018-03-17T20:45:22.368Z,-5.60
2018-03-17T20:47:48.872Z,-5.60
2018-03-17T20:50:16.041Z,-5.50
2018-03-17T20:52:42.586Z,-5.50
2018-03-17T20:55:09.759Z,-5.50
2018-03-17T20:57:36.966Z,-5.50
2018-03-17T21:00:03.476Z,-5.50
2018-03-17T21:02:31.313Z,-5.50
2018-03-17T21:04:57.773Z,-5.50
2018-03-17T21:07:24.204Z,-5.50
2018-03-17T21:09:50.673Z,-5.50
2018-03-17T21:12:17.084Z,-5.40
2018-03-17T21:14:44.352Z,-5.40
2018-03-17T21:17:10.899Z,-5.40
2018-03-17T21:19:37.368Z,-5.40
2018-03-17T21:22:04.853Z,-5.50
2018-03-17T21:24:32.022Z,-5.50
2018-03-17T21:26:59.249Z,-5.50
2018-03-17T21:29:25.710Z,-5.50
2018-03-17T21:31:52.162Z,-5.50
2018-03-17T21:34:18.620Z,-5.40
2018-03-17T21:36:45.243Z,-5.40
2018-03-17T21:39:11.799Z,-5.40
2018-03-17T21:41:38.955Z,-5.50
2018-03-17T21:44:05.421Z,-5.50
2018-03-17T21:46:32.613Z,-5.40
2018-03-17T21:48:59.079Z,-5.50
2018-03-17T21:51:25.520Z,-5.50
2018-03-17T21:53:52.888Z,-5.50
2018-03-17T21:56:19.378Z,-5.40
2018-03-17T21:58:46.437Z,-5.40
2018-03-17T22:01:12.955Z,-5.50
2018-03-17T22:03:39.383Z,-5.40
2018-03-17T22:06:06.559Z,-5.40
2018-03-17T22:08:33.013Z,-5.40
2018-03-17T22:11:00.539Z,-5.40
2018-03-17T22:13:27.721Z,-5.50
2018-03-17T22:15:55.344Z,-5.60
2018-03-17T22:18:21.848Z,-5.60
2018-03-17T22:20:49.126Z,-5.60
2018-03-17T22:23:15.578Z,-5.60
2018-03-17T22:25:42.810Z,-5.60
2018-03-17T22:28:09.523Z,-5.60
2018-03-17T22:30:36.079Z,-5.60
2018-03-17T22:33:03.761Z,-5.60
2018-03-17T22:35:32.700Z,-5.60
2018-03-17T22:37:59.636Z,-5.50
2018-03-17T22:40:28.360Z,-5.40
2018-03-17T22:42:55.004Z,-5.40
2018-03-17T22:45:22.558Z,-5.50
2018-03-17T22:47:48.989Z,-5.50
2018-03-17T22:50:16.071Z,-5.50
2018-03-17T22:52:42.806Z,-5.50
2018-03-17T22:55:09.433Z,-5.50
2018-03-17T22:57:36.909Z,-5.60
2018-03-17T23:00:03.574Z,-5.60
2018-03-17T23:02:30.950Z,-5.60
2018-03-17T23:04:57.490Z,-5.60
2018-03-17T23:07:23.964Z,-5.50
2018-03-17T23:09:51.157Z,-5.50
2018-03-17T23:12:17.608Z,-5.50
2018-03-17T23:14:44.101Z,-5.50
2018-03-17T23:17:10.528Z,-5.60
2018-03-17T23:19:36.967Z,-5.60
2018-03-17T23:22:03.433Z,-5.50
2018-03-17T23:24:29.975Z,-5.50
2018-03-17T23:26:57.134Z,-5.50
2018-03-17T23:29:25.426Z,-5.50
2018-03-17T23:31:52.625Z,-5.60
2018-03-17T23:34:19.179Z,-5.50
2018-03-17T23:36:45.740Z,-5.60
2018-03-17T23:39:12.295Z,-5.60
2018-03-17T23:41:39.572Z,-5.60
2018-03-17T23:44:06.062Z,-5.60
2018-03-17T23:46:32.550Z,-5.60
2018-03-17T23:48:59.060Z,-5.60
2018-03-17T23:51:25.618Z,-5.60
2018-03-17T23:53:52.710Z,-5.60
2018-03-17T23:56:19.192Z,-5.60
2018-03-17T23:58:45.698Z,-5.60
